createdAt,value
2023-01-01T00:00:39.575Z,1006.34
2023-01-01T00:01:40.026Z,1006.30
2023-01-01T00:02:39.531Z,1006.38
2023-01-01T00:03:39.552Z,1006.34
2023-01-01T00:04:39.510Z,1006.44
2023-01-01T00:05:39.513Z,1006.50
2023-01-01T00:06:39.515Z,1006.47
2023-01-01T00:07:39.500Z,1006.49
2023-01-01T00:08:39.497Z,1006.41
2023-01-01T00:09:39.491Z,1006.44
2023-01-01T00:10:39.480Z,1006.35
2023-01-01T00:11:39.571Z,1006.33
2023-01-01T00:12:39.480Z,1006.31
2023-01-01T00:13:39.470Z,1006.39
2023-01-01T00:14:39.465Z,1006.21
2023-01-01T00:15:39.465Z,1006.37
2023-01-01T00:16:39.485Z,1006.40
2023-01-01T00:17:39.452Z,1006.39
2023-01-01T00:18:39.447Z,1006.35
2023-01-01T00:19:39.465Z,1006.39
2023-01-01T00:20:39.434Z,1006.40
2023-01-01T00:21:39.434Z,1006.39
2023-01-01T00:22:56.095Z,1006.35
2023-01-01T00:23:39.418Z,1006.32
2023-01-01T00:24:39.415Z,1006.38
2023-01-01T00:25:39.409Z,1006.46
2023-01-01T00:26:39.403Z,1006.47
2023-01-01T00:27:39.399Z,1006.48
2023-01-01T00:28:39.398Z,1006.51
2023-01-01T00:29:39.391Z,1006.56
2023-01-01T00:30:39.407Z,1006.53
2023-01-01T00:31:39.386Z,1006.58
2023-01-01T00:32:39.385Z,1006.58
2023-01-01T00:33:39.370Z,1006.52
2023-01-01T00:34:39.366Z,1006.65
2023-01-01T00:35:39.362Z,1006.62
2023-01-01T00:36:39.356Z,1006.62
2023-01-01T00:37:44.906Z,1006.60
2023-01-01T00:38:39.355Z,1006.66
2023-01-01T00:39:39.346Z,1006.60
2023-01-01T00:40:39.365Z,1006.62
2023-01-01T00:41:39.337Z,1006.60
2023-01-01T00:42:39.325Z,1006.59
2023-01-01T00:43:39.321Z,1006.62
2023-01-01T00:44:39.327Z,1006.63
2023-01-01T00:45:39.362Z,1006.64
2023-01-01T00:46:39.306Z,1006.60
2023-01-01T00:47:39.319Z,1006.59
2023-01-01T00:48:39.299Z,1006.56
2023-01-01T00:49:39.299Z,1006.72
2023-01-01T00:50:39.346Z,1006.58
2023-01-01T00:51:39.297Z,1006.68
2023-01-01T00:52:39.272Z,1006.77
2023-01-01T00:53:39.270Z,1006.73
2023-01-01T00:54:39.297Z,1006.69
2023-01-01T00:55:39.271Z,1006.75
2023-01-01T00:56:39.259Z,1006.75
2023-01-01T00:57:39.283Z,1006.80
2023-01-01T00:58:39.257Z,1006.88
2023-01-01T00:59:39.243Z,1006.81
2023-01-01T01:00:39.237Z,1006.78
2023-01-01T01:01:39.319Z,1006.78
2023-01-01T01:02:39.364Z,1006.78
2023-01-01T01:03:39.313Z,1006.81
2023-01-01T01:04:39.220Z,1006.84
2023-01-01T01:05:39.219Z,1006.78
2023-01-01T01:06:39.215Z,1006.80
2023-01-01T01:07:39.245Z,1006.85
2023-01-01T01:08:39.214Z,1006.88
2023-01-01T01:09:39.194Z,1006.88
2023-01-01T01:10:39.187Z,1006.89
2023-01-01T01:11:39.188Z,1006.87
2023-01-01T01:12:39.202Z,1006.90
2023-01-01T01:13:39.189Z,1006.87
2023-01-01T01:14:39.172Z,1006.88
2023-01-01T01:15:39.163Z,1006.90
2023-01-01T01:16:39.196Z,1006.88
2023-01-01T01:17:39.159Z,1006.88
2023-01-01T01:18:39.167Z,1006.87
2023-01-01T01:19:39.155Z,1006.90
2023-01-01T01:20:39.136Z,1006.86
2023-01-01T01:21:39.135Z,1006.88
2023-01-01T01:22:39.130Z,1006.83
2023-01-01T01:23:39.128Z,1006.85
2023-01-01T01:24:39.123Z,1006.82
2023-01-01T01:25:39.123Z,1006.88
2023-01-01T01:26:39.109Z,1006.88
2023-01-01T01:27:39.105Z,1006.86
2023-01-01T01:28:42.570Z,1006.91
2023-01-01T01:29:39.088Z,1006.89
2023-01-01T01:30:39.115Z,1006.90
2023-01-01T01:31:39.086Z,1006.83
2023-01-01T01:32:39.074Z,1006.85
2023-01-01T01:33:39.071Z,1006.90
2023-01-01T01:34:39.073Z,1006.89
2023-01-01T01:35:39.060Z,1006.82
2023-01-01T01:36:39.068Z,1006.90
2023-01-01T01:37:39.061Z,1006.94
2023-01-01T01:38:39.053Z,1006.99
2023-01-01T01:39:39.045Z,1006.93
2023-01-01T01:40:39.039Z,1006.92
2023-01-01T01:41:39.031Z,1006.94
2023-01-01T01:42:39.028Z,1006.96
2023-01-01T01:43:39.023Z,1006.93
2023-01-01T01:44:39.021Z,1006.98
2023-01-01T01:45:39.016Z,1006.96
2023-01-01T01:46:39.005Z,1006.97
2023-01-01T01:47:39.012Z,1006.98
2023-01-01T01:48:38.999Z,1006.98
2023-01-01T01:49:38.993Z,1006.97
2023-01-01T01:50:38.999Z,1007.01
2023-01-01T01:51:38.995Z,1006.98
2023-01-01T01:52:38.974Z,1006.94
2023-01-01T01:53:38.971Z,1006.95
2023-01-01T01:54:38.979Z,1006.91
2023-01-01T01:55:38.968Z,1006.93
2023-01-01T01:56:38.969Z,1006.91
2023-01-01T01:57:38.991Z,1006.96
2023-01-01T01:58:38.963Z,1006.97
2023-01-01T01:59:38.942Z,1006.96
2023-01-01T02:00:38.950Z,1006.89
2023-01-01T02:01:39.000Z,1006.89
2023-01-01T02:02:39.046Z,1006.99
2023-01-01T02:03:38.929Z,1007.01
2023-01-01T02:04:38.916Z,1007.06
2023-01-01T02:05:38.911Z,1007.03
2023-01-01T02:06:38.908Z,1007.10
2023-01-01T02:07:38.906Z,1007.08
2023-01-01T02:08:38.895Z,1007.12
2023-01-01T02:09:38.892Z,1007.10
2023-01-01T02:10:38.894Z,1007.09
2023-01-01T02:11:38.882Z,1007.10
2023-01-01T02:12:38.877Z,1006.96
2023-01-01T02:13:38.873Z,1007.09
2023-01-01T02:14:38.864Z,1007.02
2023-01-01T02:15:38.911Z,1007.02
2023-01-01T02:16:38.860Z,1007.04
2023-01-01T02:17:39.660Z,1007.01
2023-01-01T02:18:38.849Z,1007.10
2023-01-01T02:19:38.840Z,1007.08
2023-01-01T02:20:38.834Z,1007.05
2023-01-01T02:21:38.833Z,1007.08
2023-01-01T02:22:38.838Z,1007.07
2023-01-01T02:23:38.821Z,1007.07
2023-01-01T02:24:38.826Z,1007.05
2023-01-01T02:25:38.846Z,1007.04
2023-01-01T02:26:39.041Z,1007.05
2023-01-01T02:27:38.799Z,1007.04
2023-01-01T02:28:38.801Z,1007.00
2023-01-01T02:29:38.792Z,1006.97
2023-01-01T02:30:38.802Z,1006.97
2023-01-01T02:31:38.795Z,1006.94
2023-01-01T02:32:38.788Z,1006.88
2023-01-01T02:33:38.774Z,1006.96
2023-01-01T02:34:38.769Z,1007.05
2023-01-01T02:35:38.822Z,1006.93
2023-01-01T02:36:38.778Z,1006.93
2023-01-01T02:37:38.750Z,1006.91
2023-01-01T02:38:38.765Z,1006.90
2023-01-01T02:39:38.741Z,1006.91
2023-01-01T02:40:38.742Z,1006.86
2023-01-01T02:41:38.735Z,1006.82
2023-01-01T02:42:38.736Z,1006.80
2023-01-01T02:43:38.725Z,1006.79
2023-01-01T02:44:38.725Z,1006.73
2023-01-01T02:45:38.715Z,1006.82
2023-01-01T02:46:38.715Z,1006.86
2023-01-01T02:47:38.707Z,1006.86
2023-01-01T02:48:38.701Z,1006.81
2023-01-01T02:49:38.695Z,1006.71
2023-01-01T02:50:38.684Z,1006.73
2023-01-01T02:51:38.684Z,1006.71
2023-01-01T02:52:38.676Z,1006.70
2023-01-01T02:53:38.680Z,1006.67
2023-01-01T02:54:38.691Z,1006.73
2023-01-01T02:55:38.756Z,1006.79
2023-01-01T02:56:38.662Z,1006.73
2023-01-01T02:57:38.658Z,1006.73
2023-01-01T02:58:38.651Z,1006.70
2023-01-01T02:59:38.642Z,1006.72
2023-01-01T03:00:38.637Z,1006.81
2023-01-01T03:01:38.738Z,1006.73
2023-01-01T03:02:38.727Z,1006.71
2023-01-01T03:03:38.689Z,1006.78
2023-01-01T03:04:38.617Z,1006.72
2023-01-01T03:05:38.633Z,1006.80
2023-01-01T03:06:38.609Z,1006.78
2023-01-01T03:07:38.607Z,1006.79
2023-01-01T03:08:38.602Z,1006.80
2023-01-01T03:09:38.598Z,1006.75
2023-01-01T03:10:38.597Z,1006.78
2023-01-01T03:11:38.583Z,1006.79
2023-01-01T03:12:38.576Z,1006.87
2023-01-01T03:13:38.572Z,1006.91
2023-01-01T03:14:38.579Z,1006.81
2023-01-01T03:15:38.618Z,1006.88
2023-01-01T03:16:38.556Z,1006.85
2023-01-01T03:17:38.556Z,1006.90
2023-01-01T03:18:38.556Z,1006.93
2023-01-01T03:19:38.549Z,1006.91
2023-01-01T03:20:38.553Z,1006.97
2023-01-01T03:21:38.528Z,1006.98
2023-01-01T03:22:59.533Z,1006.99
2023-01-01T03:23:38.523Z,1006.94
2023-01-01T03:24:38.520Z,1007.03
2023-01-01T03:25:38.527Z,1006.96
2023-01-01T03:26:38.512Z,1007.00
2023-01-01T03:27:38.500Z,1006.94
2023-01-01T03:28:38.528Z,1006.98
2023-01-01T03:29:38.491Z,1006.88
2023-01-01T03:30:38.488Z,1007.01
2023-01-01T03:31:38.503Z,1007.01
2023-01-01T03:32:38.475Z,1006.99
2023-01-01T03:33:38.470Z,1006.97
2023-01-01T03:34:38.470Z,1006.94
2023-01-01T03:35:38.458Z,1006.98
2023-01-01T03:36:38.461Z,1006.93
2023-01-01T03:37:38.448Z,1006.88
2023-01-01T03:38:38.443Z,1006.94
2023-01-01T03:39:38.438Z,1006.96
2023-01-01T03:40:38.429Z,1006.98
2023-01-01T03:41:38.439Z,1006.94
2023-01-01T03:42:38.421Z,1006.86
2023-01-01T03:43:38.416Z,1006.87
2023-01-01T03:44:38.429Z,1006.92
2023-01-01T03:45:38.414Z,1006.88
2023-01-01T03:46:38.441Z,1006.98
2023-01-01T03:47:38.398Z,1006.95
2023-01-01T03:48:38.391Z,1007.02
2023-01-01T03:49:38.390Z,1007.05
2023-01-01T03:50:38.384Z,1007.03
2023-01-01T03:51:38.376Z,1007.14
2023-01-01T03:52:38.398Z,1007.09
2023-01-01T03:53:38.367Z,1007.13
2023-01-01T03:54:38.365Z,1007.15
2023-01-01T03:55:38.370Z,1007.14
2023-01-01T03:56:38.351Z,1007.19
2023-01-01T03:57:38.343Z,1007.28
2023-01-01T03:58:38.347Z,1007.25
2023-01-01T03:59:38.338Z,1007.24
2023-01-01T04:00:38.329Z,1007.29
2023-01-01T04:01:38.412Z,1007.29
2023-01-01T04:02:38.388Z,1007.23
2023-01-01T04:03:38.363Z,1007.34
2023-01-01T04:04:38.313Z,1007.31
2023-01-01T04:05:38.305Z,1007.35
2023-01-01T04:06:38.302Z,1007.33
2023-01-01T04:07:38.291Z,1007.42
2023-01-01T04:08:38.288Z,1007.36
2023-01-01T04:09:38.283Z,1007.42
2023-01-01T04:10:38.290Z,1007.43
2023-01-01T04:11:38.269Z,1007.41
2023-01-01T04:12:38.268Z,1007.42
2023-01-01T04:13:38.338Z,1007.45
2023-01-01T04:14:38.259Z,1007.50
2023-01-01T04:15:38.251Z,1007.51
2023-01-01T04:16:38.293Z,1007.58
2023-01-01T04:17:38.240Z,1007.54
2023-01-01T04:18:38.235Z,1007.58
2023-01-01T04:19:38.235Z,1007.65
2023-01-01T04:20:38.226Z,1007.56
2023-01-01T04:21:38.222Z,1007.55
2023-01-01T04:22:38.212Z,1007.66
2023-01-01T04:23:38.275Z,1007.55
2023-01-01T04:24:38.211Z,1007.59
2023-01-01T04:25:38.201Z,1007.60
2023-01-01T04:26:38.192Z,1007.62
2023-01-01T04:27:38.192Z,1007.64
2023-01-01T04:28:38.179Z,1007.55
2023-01-01T04:29:38.177Z,1007.60
2023-01-01T04:32:09.847Z,1007.71
2023-01-01T04:33:09.841Z,1007.63
2023-01-01T04:35:13.828Z,1007.66
2023-01-01T04:36:13.807Z,1007.68
2023-01-01T04:38:06.925Z,1007.62
2023-01-01T04:39:06.920Z,1007.63
2023-01-01T04:41:00.046Z,1007.62
2023-01-01T04:42:00.023Z,1007.61
2023-01-01T04:43:52.955Z,1007.61
2023-01-01T04:44:52.941Z,1007.71
2023-01-01T04:46:46.059Z,1007.66
2023-01-01T04:47:46.049Z,1007.65
2023-01-01T04:49:38.965Z,1007.68
2023-01-01T04:50:38.947Z,1007.68
2023-01-01T04:52:42.930Z,1007.68
2023-01-01T04:53:42.915Z,1007.65
2023-01-01T04:55:35.852Z,1007.66
2023-01-01T04:56:35.832Z,1007.64
2023-01-01T04:58:39.871Z,1007.76
2023-01-01T04:59:39.861Z,1007.70
2023-01-01T05:01:44.005Z,1007.74
2023-01-01T05:02:43.929Z,1007.69
2023-01-01T05:04:36.971Z,1007.71
2023-01-01T05:05:36.967Z,1007.68
2023-01-01T05:06:36.951Z,1007.73
2023-01-01T05:07:36.948Z,1007.74
2023-01-01T05:08:36.941Z,1007.71
2023-01-01T05:09:36.943Z,1007.72
2023-01-01T05:10:36.930Z,1007.66
2023-01-01T05:11:36.925Z,1007.68
2023-01-01T05:12:36.922Z,1007.73
2023-01-01T05:13:36.917Z,1007.75
2023-01-01T05:14:36.911Z,1007.79
2023-01-01T05:15:36.906Z,1007.83
2023-01-01T05:16:36.959Z,1007.82
2023-01-01T05:17:36.902Z,1007.81
2023-01-01T05:18:36.884Z,1007.79
2023-01-01T05:19:36.887Z,1007.85
2023-01-01T05:20:36.876Z,1007.75
2023-01-01T05:21:36.881Z,1007.83
2023-01-01T05:22:36.867Z,1007.83
2023-01-01T05:23:36.867Z,1007.90
2023-01-01T05:24:36.864Z,1007.85
2023-01-01T05:25:36.851Z,1007.92
2023-01-01T05:26:36.843Z,1007.88
2023-01-01T05:27:36.840Z,1007.92
2023-01-01T05:28:36.834Z,1007.87
2023-01-01T05:29:36.830Z,1007.90
2023-01-01T05:30:36.832Z,1007.90
2023-01-01T05:31:36.829Z,1007.92
2023-01-01T05:32:36.812Z,1007.76
2023-01-01T05:33:36.814Z,1007.90
2023-01-01T05:34:57.809Z,1007.88
2023-01-01T05:35:36.796Z,1007.87
2023-01-01T05:36:36.792Z,1007.91
2023-01-01T05:37:36.781Z,1007.87
2023-01-01T05:38:36.780Z,1007.97
2023-01-01T05:39:36.776Z,1007.91
2023-01-01T05:40:36.769Z,1007.91
2023-01-01T05:41:36.956Z,1007.91
2023-01-01T05:42:36.761Z,1007.88
2023-01-01T05:43:36.753Z,1007.97
2023-01-01T05:44:36.750Z,1007.93
2023-01-01T05:45:36.775Z,1007.83
2023-01-01T05:46:36.744Z,1007.96
2023-01-01T05:47:36.733Z,1007.93
2023-01-01T05:48:36.817Z,1007.90
2023-01-01T05:49:36.727Z,1007.89
2023-01-01T05:50:36.719Z,1007.91
2023-01-01T05:51:57.718Z,1008.01
2023-01-01T05:52:36.727Z,1007.96
2023-01-01T05:53:36.707Z,1007.98
2023-01-01T05:54:36.699Z,1007.92
2023-01-01T05:55:36.693Z,1007.97
2023-01-01T05:56:36.742Z,1008.00
2023-01-01T05:57:36.696Z,1007.99
2023-01-01T05:58:36.677Z,1007.95
2023-01-01T05:59:36.672Z,1007.98
2023-01-01T06:00:36.668Z,1007.96
2023-01-01T06:01:44.899Z,1007.97
2023-01-01T06:02:36.677Z,1007.99
2023-01-01T06:03:36.656Z,1007.96
2023-01-01T06:04:36.688Z,1008.01
2023-01-01T06:05:36.646Z,1007.99
2023-01-01T06:06:36.656Z,1007.98
2023-01-01T06:07:36.629Z,1007.97
2023-01-01T06:08:36.647Z,1007.99
2023-01-01T06:09:36.634Z,1008.00
2023-01-01T06:10:36.611Z,1007.98
2023-01-01T06:11:36.624Z,1008.05
2023-01-01T06:12:36.605Z,1007.99
2023-01-01T06:13:36.599Z,1008.01
2023-01-01T06:14:36.593Z,1008.04
2023-01-01T06:15:36.588Z,1008.09
2023-01-01T06:16:36.636Z,1007.99
2023-01-01T06:17:36.582Z,1008.04
2023-01-01T06:18:36.570Z,1008.08
2023-01-01T06:19:36.567Z,1008.13
2023-01-01T06:20:36.566Z,1008.19
2023-01-01T06:21:36.574Z,1008.17
2023-01-01T06:22:36.552Z,1008.12
2023-01-01T06:23:36.547Z,1008.10
2023-01-01T06:24:39.088Z,1008.18
2023-01-01T06:25:36.535Z,1008.20
2023-01-01T06:26:36.529Z,1008.19
2023-01-01T06:27:36.525Z,1008.16
2023-01-01T06:28:36.522Z,1008.18
2023-01-01T06:29:36.517Z,1008.15
2023-01-01T06:30:36.570Z,1008.13
2023-01-01T06:31:40.674Z,1008.15
2023-01-01T06:32:36.504Z,1008.08
2023-01-01T06:33:36.492Z,1008.11
2023-01-01T06:34:36.490Z,1008.14
2023-01-01T06:35:36.491Z,1008.14
2023-01-01T06:36:36.477Z,1008.15
2023-01-01T06:37:36.474Z,1008.17
2023-01-01T06:38:36.483Z,1008.24
2023-01-01T06:39:36.462Z,1008.30
2023-01-01T06:40:36.453Z,1008.28
2023-01-01T06:41:36.452Z,1008.31
2023-01-01T06:42:36.445Z,1008.27
2023-01-01T06:43:36.442Z,1008.30
2023-01-01T06:44:36.434Z,1008.28
2023-01-01T06:45:36.432Z,1008.37
2023-01-01T06:46:36.512Z,1008.43
2023-01-01T06:47:36.419Z,1008.36
2023-01-01T06:48:36.416Z,1008.33
2023-01-01T06:49:36.410Z,1008.38
2023-01-01T06:50:36.403Z,1008.41
2023-01-01T06:51:36.401Z,1008.37
2023-01-01T06:52:36.391Z,1008.30
2023-01-01T06:53:36.392Z,1008.32
2023-01-01T06:54:36.382Z,1008.24
2023-01-01T06:55:36.389Z,1008.21
2023-01-01T06:56:36.382Z,1008.21
2023-01-01T06:57:36.384Z,1008.22
2023-01-01T06:58:36.361Z,1008.27
2023-01-01T06:59:36.355Z,1008.30
2023-01-01T07:00:36.350Z,1008.29
2023-01-01T07:01:36.489Z,1008.32
2023-01-01T07:02:36.452Z,1008.43
2023-01-01T07:03:36.420Z,1008.37
2023-01-01T07:04:36.328Z,1008.38
2023-01-01T07:05:36.330Z,1008.39
2023-01-01T07:06:36.351Z,1008.45
2023-01-01T07:07:36.327Z,1008.53
2023-01-01T07:08:36.310Z,1008.42
2023-01-01T07:09:36.301Z,1008.47
2023-01-01T07:10:36.300Z,1008.43
2023-01-01T07:11:36.300Z,1008.47
2023-01-01T07:12:36.285Z,1008.48
2023-01-01T07:13:36.280Z,1008.53
2023-01-01T07:14:36.273Z,1008.59
2023-01-01T07:15:36.306Z,1008.56
2023-01-01T07:16:36.323Z,1008.57
2023-01-01T07:17:36.257Z,1008.63
2023-01-01T07:18:36.435Z,1008.58
2023-01-01T07:19:36.246Z,1008.61
2023-01-01T07:20:36.242Z,1008.60
2023-01-01T07:21:36.236Z,1008.64
2023-01-01T07:22:36.228Z,1008.72
2023-01-01T07:23:36.229Z,1008.74
2023-01-01T07:24:36.221Z,1008.71
2023-01-01T07:25:36.239Z,1008.67
2023-01-01T07:26:36.208Z,1008.71
2023-01-01T07:27:36.201Z,1008.75
2023-01-01T07:28:36.196Z,1008.70
2023-01-01T07:29:36.192Z,1008.72
2023-01-01T07:30:36.183Z,1008.73
2023-01-01T07:31:36.340Z,1008.80
2023-01-01T07:32:36.185Z,1008.76
2023-01-01T07:33:36.182Z,1008.80
2023-01-01T07:34:36.166Z,1008.87
2023-01-01T07:35:36.159Z,1008.75
2023-01-01T07:36:36.151Z,1008.82
2023-01-01T07:37:36.156Z,1008.93
2023-01-01T07:38:36.142Z,1008.81
2023-01-01T07:39:36.137Z,1008.82
2023-01-01T07:40:36.143Z,1008.81
2023-01-01T07:41:36.135Z,1008.82
2023-01-01T07:42:36.129Z,1008.82
2023-01-01T07:43:36.119Z,1008.80
2023-01-01T07:44:36.110Z,1008.82
2023-01-01T07:45:36.121Z,1008.95
2023-01-01T07:46:36.247Z,1008.97
2023-01-01T07:47:36.101Z,1009.00
2023-01-01T07:48:40.055Z,1009.05
2023-01-01T07:49:36.084Z,1009.07
2023-01-01T07:50:36.081Z,1009.08
2023-01-01T07:51:36.081Z,1009.16
2023-01-01T07:52:36.068Z,1009.15
2023-01-01T07:53:36.065Z,1009.18
2023-01-01T07:54:36.054Z,1009.17
2023-01-01T07:55:36.060Z,1009.16
2023-01-01T07:56:36.084Z,1009.15
2023-01-01T07:57:36.048Z,1009.15
2023-01-01T07:58:36.070Z,1009.07
2023-01-01T07:59:36.029Z,1009.09
2023-01-01T08:00:36.024Z,1009.12
2023-01-01T08:01:36.144Z,1009.17
2023-01-01T08:02:36.104Z,1009.19
2023-01-01T08:03:36.027Z,1009.10
2023-01-01T08:04:36.009Z,1009.16
2023-01-01T08:05:36.005Z,1009.11
2023-01-01T08:06:35.991Z,1009.08
2023-01-01T08:07:35.988Z,1009.06
2023-01-01T08:08:35.983Z,1009.16
2023-01-01T08:09:35.977Z,1009.10
2023-01-01T08:10:35.974Z,1009.16
2023-01-01T08:11:35.968Z,1009.22
2023-01-01T08:12:35.960Z,1009.15
2023-01-01T08:13:35.989Z,1009.18
2023-01-01T08:14:35.950Z,1009.14
2023-01-01T08:15:35.954Z,1009.17
2023-01-01T08:16:35.979Z,1009.14
2023-01-01T08:17:37.792Z,1009.17
2023-01-01T08:18:35.925Z,1009.15
2023-01-01T08:19:35.924Z,1009.13
2023-01-01T08:20:35.923Z,1009.19
2023-01-01T08:21:35.913Z,1009.15
2023-01-01T08:22:35.915Z,1009.24
2023-01-01T08:23:35.905Z,1009.27
2023-01-01T08:24:35.895Z,1009.18
2023-01-01T08:25:35.910Z,1009.28
2023-01-01T08:26:35.916Z,1009.22
2023-01-01T08:27:35.886Z,1009.32
2023-01-01T08:28:35.882Z,1009.37
2023-01-01T08:29:35.873Z,1009.43
2023-01-01T08:30:35.865Z,1009.46
2023-01-01T08:31:35.916Z,1009.47
2023-01-01T08:32:35.852Z,1009.45
2023-01-01T08:33:35.847Z,1009.47
2023-01-01T08:34:35.840Z,1009.46
2023-01-01T08:35:35.846Z,1009.50
2023-01-01T08:36:35.825Z,1009.52
2023-01-01T08:37:35.855Z,1009.51
2023-01-01T08:38:35.820Z,1009.50
2023-01-01T08:39:35.818Z,1009.51
2023-01-01T08:40:35.810Z,1009.53
2023-01-01T08:41:35.808Z,1009.57
2023-01-01T08:42:35.803Z,1009.63
2023-01-01T08:43:35.795Z,1009.65
2023-01-01T08:44:35.794Z,1009.70
2023-01-01T08:45:35.793Z,1009.66
2023-01-01T08:46:35.793Z,1009.65
2023-01-01T08:47:35.775Z,1009.62
2023-01-01T08:48:35.779Z,1009.53
2023-01-01T08:49:35.767Z,1009.54
2023-01-01T08:50:35.753Z,1009.65
2023-01-01T08:51:35.753Z,1009.67
2023-01-01T08:52:35.748Z,1009.70
2023-01-01T08:53:35.747Z,1009.61
2023-01-01T08:54:35.736Z,1009.68
2023-01-01T08:55:35.736Z,1009.66
2023-01-01T08:56:35.740Z,1009.65
2023-01-01T08:57:35.724Z,1009.68
2023-01-01T08:58:35.722Z,1009.60
2023-01-01T08:59:35.710Z,1009.64
2023-01-01T09:00:35.705Z,1009.59
2023-01-01T09:01:35.857Z,1009.60
2023-01-01T09:02:35.999Z,1009.66
2023-01-01T09:03:35.767Z,1009.72
2023-01-01T09:04:35.686Z,1009.72
2023-01-01T09:05:35.686Z,1009.71
2023-01-01T09:06:35.674Z,1009.73
2023-01-01T09:07:35.667Z,1009.79
2023-01-01T09:08:35.664Z,1009.80
2023-01-01T09:09:35.673Z,1009.84
2023-01-01T09:10:35.654Z,1009.82
2023-01-01T09:11:35.646Z,1009.73
2023-01-01T09:12:35.657Z,1009.91
2023-01-01T09:13:35.642Z,1009.97
2023-01-01T09:14:35.642Z,1009.93
2023-01-01T09:15:35.627Z,1009.89
2023-01-01T09:16:41.947Z,1010.03
2023-01-01T09:17:35.619Z,1009.98
2023-01-01T09:18:35.613Z,1010.05
2023-01-01T09:19:35.622Z,1010.05
2023-01-01T09:20:35.602Z,1010.04
2023-01-01T09:21:35.597Z,1010.13
2023-01-01T09:22:35.593Z,1010.11
2023-01-01T09:23:35.589Z,1010.15
2023-01-01T09:24:35.584Z,1010.11
2023-01-01T09:25:35.577Z,1010.23
2023-01-01T09:26:35.570Z,1010.20
2023-01-01T09:27:35.580Z,1010.25
2023-01-01T09:28:35.589Z,1010.26
2023-01-01T09:29:35.585Z,1010.25
2023-01-01T09:30:35.559Z,1010.22
2023-01-01T09:31:35.587Z,1010.17
2023-01-01T09:32:35.547Z,1010.06
2023-01-01T09:33:35.569Z,1010.26
2023-01-01T09:34:35.545Z,1010.23
2023-01-01T09:35:35.566Z,1010.21
2023-01-01T09:36:35.576Z,1010.23
2023-01-01T09:37:35.572Z,1010.16
2023-01-01T09:38:35.553Z,1010.25
2023-01-01T09:39:35.512Z,1010.25
2023-01-01T09:40:35.506Z,1010.34
2023-01-01T09:41:35.505Z,1010.29
2023-01-01T09:42:35.501Z,1010.27
2023-01-01T09:43:35.532Z,1010.32
2023-01-01T09:44:35.492Z,1010.35
2023-01-01T09:45:35.535Z,1010.31
2023-01-01T09:46:35.492Z,1010.35
2023-01-01T09:47:35.468Z,1010.30
2023-01-01T09:48:35.464Z,1010.28
2023-01-01T09:49:35.475Z,1010.29
2023-01-01T09:50:35.461Z,1010.38
2023-01-01T09:51:36.376Z,1010.35
2023-01-01T09:52:35.447Z,1010.34
2023-01-01T09:53:35.444Z,1010.37
2023-01-01T09:54:35.467Z,1010.42
2023-01-01T09:55:35.434Z,1010.36
2023-01-01T09:56:35.429Z,1010.37
2023-01-01T09:57:35.420Z,1010.37
2023-01-01T09:58:35.423Z,1010.31
2023-01-01T09:59:35.408Z,1010.42
2023-01-01T10:00:35.445Z,1010.40
2023-01-01T10:01:35.543Z,1010.43
2023-01-01T10:02:35.400Z,1010.42
2023-01-01T10:03:35.465Z,1010.45
2023-01-01T10:04:35.388Z,1010.41
2023-01-01T10:05:35.384Z,1010.41
2023-01-01T10:06:35.377Z,1010.44
2023-01-01T10:07:35.373Z,1010.46
2023-01-01T10:08:35.369Z,1010.52
2023-01-01T10:09:35.367Z,1010.49
2023-01-01T10:10:35.357Z,1010.48
2023-01-01T10:11:35.362Z,1010.52
2023-01-01T10:12:35.355Z,1010.52
2023-01-01T10:13:35.347Z,1010.56
2023-01-01T10:14:35.339Z,1010.49
2023-01-01T10:15:35.332Z,1010.56
2023-01-01T10:16:35.378Z,1010.49
2023-01-01T10:17:35.325Z,1010.49
2023-01-01T10:18:35.323Z,1010.52
2023-01-01T10:19:35.315Z,1010.53
2023-01-01T10:20:35.311Z,1010.60
2023-01-01T10:21:35.314Z,1010.53
2023-01-01T10:22:35.303Z,1010.59
2023-01-01T10:23:35.299Z,1010.63
2023-01-01T10:24:35.291Z,1010.60
2023-01-01T10:25:35.291Z,1010.63
2023-01-01T10:26:35.283Z,1010.67
2023-01-01T10:27:35.279Z,1010.64
2023-01-01T10:28:35.276Z,1010.67
2023-01-01T10:29:35.269Z,1010.70
2023-01-01T10:30:35.262Z,1010.69
2023-01-01T10:31:35.300Z,1010.72
2023-01-01T10:32:35.259Z,1010.72
2023-01-01T10:33:35.249Z,1010.75
2023-01-01T10:34:35.244Z,1010.71
2023-01-01T10:35:35.243Z,1010.72
2023-01-01T10:36:35.236Z,1010.79
2023-01-01T10:37:35.231Z,1010.67
2023-01-01T10:38:35.226Z,1010.82
2023-01-01T10:39:35.221Z,1010.80
2023-01-01T10:40:35.234Z,1010.74
2023-01-01T10:41:35.212Z,1010.75
2023-01-01T10:42:35.208Z,1010.76
2023-01-01T10:43:35.203Z,1010.79
2023-01-01T10:44:35.211Z,1010.82
2023-01-01T10:45:35.272Z,1010.83
2023-01-01T10:46:35.225Z,1010.84
2023-01-01T10:47:35.189Z,1010.83
2023-01-01T10:48:35.182Z,1010.81
2023-01-01T10:49:35.171Z,1010.84
2023-01-01T10:50:35.170Z,1010.82
2023-01-01T10:51:35.167Z,1010.84
2023-01-01T10:52:35.183Z,1010.80
2023-01-01T10:53:35.167Z,1010.77
2023-01-01T10:54:35.164Z,1010.80
2023-01-01T10:55:35.164Z,1010.70
2023-01-01T10:56:35.144Z,1010.62
2023-01-01T10:57:35.147Z,1010.86
2023-01-01T10:58:35.134Z,1010.76
2023-01-01T10:59:35.144Z,1010.85
2023-01-01T11:00:35.124Z,1010.93
2023-01-01T11:01:35.187Z,1010.96
2023-01-01T11:02:35.283Z,1010.96
2023-01-01T11:03:35.111Z,1011.07
2023-01-01T11:04:35.116Z,1011.06
2023-01-01T11:05:35.112Z,1011.02
2023-01-01T11:06:35.099Z,1011.20
2023-01-01T11:07:35.097Z,1011.11
2023-01-01T11:08:35.088Z,1011.12
2023-01-01T11:09:35.086Z,1011.13
2023-01-01T11:10:35.079Z,1011.17
2023-01-01T11:11:35.075Z,1011.15
2023-01-01T11:13:05.602Z,1011.16
2023-01-01T11:13:35.067Z,1011.19
2023-01-01T11:14:35.061Z,1011.23
2023-01-01T11:15:35.056Z,1011.26
2023-01-01T11:16:35.097Z,1011.22
2023-01-01T11:17:35.047Z,1011.22
2023-01-01T11:18:35.043Z,1011.23
2023-01-01T11:19:35.044Z,1011.28
2023-01-01T11:20:35.034Z,1011.30
2023-01-01T11:21:35.042Z,1011.37
2023-01-01T11:22:35.028Z,1011.35
2023-01-01T11:23:35.018Z,1011.33
2023-01-01T11:24:35.028Z,1011.31
2023-01-01T11:25:35.011Z,1011.23
2023-01-01T11:26:35.006Z,1011.18
2023-01-01T11:27:35.007Z,1011.21
2023-01-01T11:28:35.057Z,1011.19
2023-01-01T11:29:35.003Z,1011.24
2023-01-01T11:30:35.055Z,1011.17
2023-01-01T11:31:34.988Z,1011.14
2023-01-01T11:32:34.980Z,1011.18
2023-01-01T11:33:34.974Z,1011.17
2023-01-01T11:34:34.969Z,1011.12
2023-01-01T11:35:34.970Z,1011.19
2023-01-01T11:36:34.957Z,1011.11
2023-01-01T11:37:34.956Z,1011.15
2023-01-01T11:38:34.950Z,1011.14
2023-01-01T11:39:34.946Z,1011.16
2023-01-01T11:40:34.957Z,1011.11
2023-01-01T11:41:34.937Z,1011.07
2023-01-01T11:42:34.942Z,1011.02
2023-01-01T11:43:34.932Z,1010.99
2023-01-01T11:44:34.930Z,1011.00
2023-01-01T11:45:37.787Z,1010.99
2023-01-01T11:46:35.094Z,1011.04
2023-01-01T11:47:34.915Z,1011.20
2023-01-01T11:48:34.917Z,1011.15
2023-01-01T11:49:35.865Z,1011.23
2023-01-01T11:50:34.897Z,1011.23
2023-01-01T11:51:34.890Z,1011.26
2023-01-01T11:52:34.891Z,1011.30
2023-01-01T11:53:34.880Z,1011.33
2023-01-01T11:54:34.878Z,1011.34
2023-01-01T11:55:34.878Z,1011.37
2023-01-01T11:56:34.896Z,1011.37
2023-01-01T11:57:34.869Z,1011.31
2023-01-01T11:58:34.863Z,1011.34
2023-01-01T11:59:34.854Z,1011.27
2023-01-01T12:00:34.849Z,1011.36
2023-01-01T12:01:34.868Z,1011.33
2023-01-01T12:02:34.865Z,1011.33
2023-01-01T12:03:34.878Z,1011.32
2023-01-01T12:04:34.834Z,1011.34
2023-01-01T12:05:34.828Z,1011.38
2023-01-01T12:06:34.828Z,1011.39
2023-01-01T12:07:34.821Z,1011.45
2023-01-01T12:08:34.820Z,1011.49
2023-01-01T12:09:34.811Z,1011.46
2023-01-01T12:10:34.808Z,1011.53
2023-01-01T12:11:34.802Z,1011.49
2023-01-01T12:12:34.810Z,1011.55
2023-01-01T12:13:34.799Z,1011.59
2023-01-01T12:14:34.789Z,1011.51
2023-01-01T12:15:34.821Z,1011.40
2023-01-01T12:16:34.777Z,1011.50
2023-01-01T12:17:34.774Z,1011.55